Time;durP1;ratioP1;P1;durP2;ratioP2;P2;SDS_P1;SDS_P2;PMS_P1;PMS_P2;Temp;Humidity;BMP_temperature;BMP_pressure;BME280_temperature;BME280_humidity;BME280_pressure;Samples;Min_cycle;Max_cycle;Signal;HPM_P1;HPM_P2
2023/09/22 00:00:11;;;;;;;17.08;11.07;;;14.30;99.90;;;;;;5152090;27;20137;-78
2023/09/22 00:02:57;;;;;;;12.85;9.30;;;14.30;99.90;;;;;;5132280;27;20050;-79
2023/09/22 00:05:44;;;;;;;15.48;10.07;;;14.30;99.90;;;;;;5150626;27;20086;-75
2023/09/22 00:08:30;;;;;;;11.52;7.97;;;14.30;99.90;;;;;;5150668;27;20043;-76
2023/09/22 00:11:17;;;;;;;13.07;8.50;;;14.30;99.90;;;;;;5154770;27;20469;-74
2023/09/22 00:14:03;;;;;;;13.05;8.55;;;14.30;99.90;;;;;;5138626;27;20099;-74
2023/09/22 00:16:49;;;;;;;12.57;8.80;;;14.30;99.90;;;;;;5140829;27;20098;-75
2023/09/22 00:19:36;;;;;;;13.85;8.27;;;14.30;99.90;;;;;;5156130;27;20065;-75
2023/09/22 00:22:22;;;;;;;11.02;7.88;;;14.30;99.90;;;;;;5138322;27;20138;-74
2023/09/22 00:25:09;;;;;;;11.32;7.55;;;14.30;99.90;;;;;;5154887;27;20051;-74
2023/09/22 00:27:55;;;;;;;11.05;6.35;;;14.30;99.90;;;;;;5135934;27;20054;-76
2023/09/22 00:30:41;;;;;;;11.38;7.15;;;14.30;99.90;;;;;;5122634;27;20054;-75
2023/09/22 00:33:27;;;;;;;7.65;5.25;;;14.20;99.90;;;;;;5136552;27;20047;-73
2023/09/22 00:36:14;;;;;;;9.88;6.25;;;14.20;99.90;;;;;;5155044;27;20167;-73
2023/09/22 00:39:00;;;;;;;10.88;6.13;;;14.30;99.90;;;;;;5155926;27;20039;-74
2023/09/22 00:41:46;;;;;;;10.50;6.88;;;14.30;99.90;;;;;;5155288;27;20130;-74
2023/09/22 00:44:32;;;;;;;10.55;7.20;;;14.30;99.90;;;;;;5136054;27;20050;-73
2023/09/22 00:47:18;;;;;;;9.30;6.28;;;14.20;99.90;;;;;;5154611;27;20133;-76
2023/09/22 00:50:08;;;;;;;12.00;8.00;;;14.30;99.90;;;;;;5154395;27;20045;-76
2023/09/22 00:52:54;;;;;;;9.43;6.07;;;14.30;99.90;;;;;;5153982;27;20059;-77
2023/09/22 00:55:40;;;;;;;11.05;6.50;;;14.30;99.90;;;;;;5122246;27;20138;-75
2023/09/22 00:58:26;;;;;;;12.75;6.43;;;14.30;99.90;;;;;;5122418;27;20053;-74
2023/09/22 01:01:13;;;;;;;12.57;7.05;;;14.30;99.90;;;;;;5140268;27;20050;-75
2023/09/22 01:03:59;;;;;;;10.02;6.60;;;14.30;99.90;;;;;;5155590;27;20043;-75
2023/09/22 01:06:46;;;;;;;9.98;6.78;;;14.30;99.90;;;;;;5138426;27;20051;-74
2023/09/22 01:09:32;;;;;;;11.25;6.85;;;14.30;99.90;;;;;;5136091;27;20057;-76
2023/09/22 01:12:18;;;;;;;10.45;6.60;;;14.30;99.90;;;;;;5154284;27;20154;-76
2023/09/22 01:15:08;;;;;;;11.18;6.47;;;14.30;99.90;;;;;;5137572;27;20133;-76
2023/09/22 01:17:54;;;;;;;11.77;6.53;;;14.30;99.90;;;;;;5156061;27;20051;-75
2023/09/22 01:20:44;;;;;;;9.68;6.55;;;14.30;99.90;;;;;;5154168;27;20042;-75
2023/09/22 01:23:30;;;;;;;10.98;6.35;;;14.30;99.90;;;;;;5154005;27;20057;-74
2023/09/22 01:26:16;;;;;;;11.93;7.40;;;14.30;99.90;;;;;;5153657;27;20050;-74
2023/09/22 01:29:04;;;;;;;15.27;8.02;;;14.30;99.90;;;;;;5153719;27;20057;-75
2023/09/22 01:31:50;;;;;;;14.73;8.90;;;14.30;99.90;;;;;;5154885;27;20486;-73
2023/09/22 01:34:36;;;;;;;10.73;7.05;;;14.20;99.90;;;;;;5153301;27;20043;-76
2023/09/22 01:37:28;;;;;;;12.60;7.28;;;14.30;99.90;;;;;;5154595;27;20046;-74
2023/09/22 01:40:16;;;;;;;14.27;8.88;;;14.20;99.90;;;;;;5153801;27;20125;-74
2023/09/22 01:43:03;;;;;;;12.85;7.18;;;14.20;99.90;;;;;;5154072;27;20163;-79
2023/09/22 01:45:50;;;;;;;13.25;7.55;;;14.20;99.90;;;;;;5154035;27;20047;-78
2023/09/22 01:48:36;;;;;;;13.75;7.55;;;14.20;99.90;;;;;;5152435;27;20082;-80
2023/09/22 01:51:23;;;;;;;16.25;9.63;;;14.20;99.90;;;;;;5135205;27;20133;-77
2023/09/22 01:54:09;;;;;;;16.83;9.27;;;14.20;99.90;;;;;;5153001;27;20322;-77
2023/09/22 01:56:55;;;;;;;16.08;9.05;;;14.20;99.90;;;;;;5153317;27;20046;-81
2023/09/22 01:59:42;;;;;;;13.63;8.73;;;14.20;99.90;;;;;;5134036;27;20053;-79
2023/09/22 02:02:28;;;;;;;17.15;8.48;;;14.30;99.90;;;;;;5152978;27;20050;-80
2023/09/22 02:05:16;;;;;;;13.88;8.38;;;14.20;99.90;;;;;;5138046;27;20053;-80
2023/09/22 02:08:03;;;;;;;15.98;9.15;;;14.20;99.90;;;;;;5152022;27;20053;-78
2023/09/22 02:10:49;;;;;;;12.85;8.40;;;14.20;99.90;;;;;;5152363;27;20486;-79
2023/09/22 02:13:35;;;;;;;18.15;10.25;;;14.20;99.90;;;;;;5152674;27;20053;-79
2023/09/22 02:16:21;;;;;;;22.95;11.38;;;14.20;99.90;;;;;;5152415;27;20055;-78
2023/09/22 02:19:07;;;;;;;20.63;10.40;;;14.20;99.90;;;;;;5152536;27;20048;-76
2023/09/22 02:21:53;;;;;;;29.60;12.02;;;14.20;99.90;;;;;;5133930;27;20043;-75
2023/09/22 02:24:39;;;;;;;17.90;10.23;;;14.30;99.90;;;;;;5133464;27;20459;-77
2023/09/22 02:27:25;;;;;;;22.80;11.57;;;14.20;99.90;;;;;;5134043;27;20074;-80
2023/09/22 02:30:11;;;;;;;21.63;11.70;;;14.20;99.90;;;;;;5133862;27;20122;-77
2023/09/22 02:32:57;;;;;;;17.50;10.95;;;14.20;99.90;;;;;;5133384;27;20157;-77
2023/09/22 02:35:43;;;;;;;24.88;12.43;;;14.20;99.90;;;;;;5152485;27;20078;-79
2023/09/22 02:38:29;;;;;;;26.10;13.13;;;14.20;99.90;;;;;;5137540;27;20403;-75
2023/09/22 02:41:15;;;;;;;22.63;12.38;;;14.20;99.90;;;;;;5119827;27;20054;-75
2023/09/22 02:44:06;;;;;;;19.80;11.15;;;14.20;99.90;;;;;;5153147;27;20047;-78
2023/09/22 02:46:52;;;;;;;17.40;10.93;;;14.20;99.90;;;;;;5150916;27;20046;-80
2023/09/22 02:49:38;;;;;;;23.80;13.18;;;14.20;99.90;;;;;;5150932;27;20047;-76
2023/09/22 02:52:24;;;;;;;24.08;13.77;;;14.20;99.90;;;;;;5151932;27;20046;-74
2023/09/22 02:55:11;;;;;;;23.25;13.80;;;14.20;99.90;;;;;;5151822;27;20047;-78
2023/09/22 02:57:57;;;;;;;22.90;13.80;;;14.30;99.90;;;;;;5132365;27;20465;-78
2023/09/22 03:00:44;;;;;;;28.40;16.25;;;14.30;99.90;;;;;;5133543;27;20053;-76
2023/09/22 03:03:32;;;;;;;25.92;14.93;;;14.30;99.90;;;;;;5132557;27;20070;-76
2023/09/22 03:06:19;;;;;;;28.27;15.93;;;14.30;99.90;;;;;;5133433;27;20054;-75
2023/09/22 03:09:09;;;;;;;31.02;16.52;;;14.30;99.90;;;;;;5151234;27;20641;-76
2023/09/22 03:11:55;;;;;;;32.22;16.33;;;14.30;99.90;;;;;;5151086;27;20137;-80
2023/09/22 03:14:41;;;;;;;32.33;16.85;;;14.20;99.90;;;;;;5151256;27;20630;-76
2023/09/22 03:17:27;;;;;;;30.48;15.57;;;14.20;99.90;;;;;;5133272;27;20082;-75
2023/09/22 03:20:14;;;;;;;33.08;16.95;;;14.20;99.90;;;;;;5150907;27;20045;-73
2023/09/22 03:23:00;;;;;;;38.90;18.80;;;14.10;99.90;;;;;;5151490;27;20447;-76
2023/09/22 03:25:47;;;;;;;31.55;16.02;;;14.10;99.90;;;;;;5151418;27;20043;-75
2023/09/22 03:28:33;;;;;;;25.15;14.48;;;14.10;99.90;;;;;;5151247;27;20055;-72
2023/09/22 03:31:19;;;;;;;38.95;18.08;;;14.10;99.90;;;;;;5151475;27;20081;-77
2023/09/22 03:34:06;;;;;;;28.27;15.70;;;14.10;99.90;;;;;;5151356;27;20107;-73
2023/09/22 03:36:52;;;;;;;39.17;18.88;;;14.10;99.90;;;;;;5151000;27;20050;-80
2023/09/22 03:39:39;;;;;;;35.80;17.45;;;14.10;99.90;;;;;;5151090;27;20574;-75
2023/09/22 03:42:25;;;;;;;30.48;16.55;;;14.10;99.90;;;;;;5150903;27;20046;-75
2023/09/22 03:45:11;;;;;;;30.50;15.50;;;14.10;99.90;;;;;;5150439;27;20054;-77
2023/09/22 03:47:57;;;;;;;28.33;14.60;;;14.10;99.90;;;;;;5150385;27;20046;-77
2023/09/22 03:50:43;;;;;;;26.08;14.52;;;14.00;99.90;;;;;;5150696;27;20057;-75
2023/09/22 03:53:29;;;;;;;23.42;13.25;;;14.00;99.90;;;;;;5136679;27;20047;-78
2023/09/22 03:56:15;;;;;;;30.17;15.02;;;14.00;99.90;;;;;;5151690;27;20436;-74
2023/09/22 03:59:02;;;;;;;24.05;13.77;;;14.00;99.90;;;;;;5152169;27;20046;-79
2023/09/22 04:01:48;;;;;;;24.30;13.02;;;13.90;99.90;;;;;;5151173;27;20047;-76
2023/09/22 04:04:34;;;;;;;21.05;10.95;;;13.90;99.90;;;;;;5118219;27;20119;-79
2023/09/22 04:07:20;;;;;;;27.30;14.73;;;13.90;99.90;;;;;;5136006;27;20580;-74
2023/09/22 04:10:08;;;;;;;28.08;14.25;;;13.90;99.90;;;;;;5151505;27;20103;-74
2023/09/22 04:12:54;;;;;;;26.17;14.18;;;13.90;99.90;;;;;;5151889;27;20047;-74
2023/09/22 04:15:40;;;;;;;24.92;13.93;;;13.90;99.90;;;;;;5152308;27;20088;-75
2023/09/22 04:18:29;;;;;;;32.10;15.18;;;13.80;99.90;;;;;;5150708;27;20039;-76
2023/09/22 04:21:15;;;;;;;34.90;16.00;;;13.80;99.90;;;;;;5150394;27;20058;-79
2023/09/22 04:24:01;;;;;;;35.85;17.02;;;13.70;99.90;;;;;;5150636;27;20096;-76
2023/09/22 04:26:49;;;;;;;28.73;14.82;;;13.80;99.90;;;;;;5150635;27;20078;-78
2023/09/22 04:29:35;;;;;;;30.27;14.60;;;13.70;99.90;;;;;;5131226;27;20065;-78
2023/09/22 04:32:23;;;;;;;26.95;13.65;;;13.70;99.90;;;;;;5150817;27;20184;-74
2023/09/22 04:35:09;;;;;;;32.88;14.88;;;13.70;99.90;;;;;;5149546;27;20493;-73
2023/09/22 04:37:55;;;;;;;35.75;16.15;;;13.70;99.90;;;;;;5131471;27;20058;-74
2023/09/22 04:40:41;;;;;;;35.40;15.73;;;13.70;99.90;;;;;;5150770;27;20041;-74
2023/09/22 04:43:27;;;;;;;32.15;15.45;;;13.60;99.90;;;;;;5150826;27;20135;-76
2023/09/22 04:46:15;;;;;;;30.92;15.60;;;13.60;99.90;;;;;;5150240;27;20501;-73
2023/09/22 04:49:01;;;;;;;34.08;17.08;;;13.50;99.90;;;;;;5130720;27;20054;-75
2023/09/22 04:51:47;;;;;;;37.45;17.33;;;13.50;99.90;;;;;;5149881;27;20047;-75
2023/09/22 04:54:34;;;;;;;30.77;16.48;;;13.50;99.90;;;;;;5131891;27;20039;-80
2023/09/22 04:57:20;;;;;;;37.15;16.63;;;13.50;99.90;;;;;;5121338;27;20053;-78
2023/09/22 05:00:16;;;;;;;26.70;14.07;;;13.50;99.90;;;;;;5121781;27;20046;-79
2023/09/22 05:03:05;;;;;;;25.30;13.20;;;13.50;99.90;;;;;;5140760;27;20075;-79
2023/09/22 05:05:52;;;;;;;28.48;13.85;;;13.50;99.90;;;;;;5153638;27;20084;-75
2023/09/22 05:08:38;;;;;;;31.65;14.82;;;13.50;99.90;;;;;;5135256;27;20050;-78
2023/09/22 05:11:24;;;;;;;22.45;13.52;;;13.50;99.90;;;;;;5153566;27;20047;-76
2023/09/22 05:14:10;;;;;;;22.90;13.38;;;13.50;99.90;;;;;;5120911;27;20421;-77
2023/09/22 05:16:56;;;;;;;22.80;13.07;;;13.50;99.90;;;;;;5134519;27;20509;-80
2023/09/22 05:19:42;;;;;;;24.83;13.45;;;13.50;99.90;;;;;;5153794;27;20050;-77
2023/09/22 05:22:30;;;;;;;20.85;12.77;;;13.40;99.90;;;;;;5153578;27;20099;-75
2023/09/22 05:25:16;;;;;;;24.50;13.35;;;13.50;99.90;;;;;;5153445;27;20042;-78
2023/09/22 05:28:04;;;;;;;23.75;13.35;;;13.50;99.90;;;;;;5153337;27;20133;-77
2023/09/22 05:30:50;;;;;;;25.95;14.38;;;13.50;99.90;;;;;;5153461;27;20053;-76
2023/09/22 05:33:36;;;;;;;27.17;14.93;;;13.50;99.90;;;;;;5134923;27;20482;-77
2023/09/22 05:36:22;;;;;;;30.50;15.32;;;13.50;99.90;;;;;;5138561;27;20078;-79
2023/09/22 05:39:10;;;;;;;26.75;15.57;;;13.50;99.90;;;;;;5152474;27;20490;-80
2023/09/22 05:41:56;;;;;;;26.50;14.38;;;13.50;99.90;;;;;;5138608;27;20049;-77
2023/09/22 05:44:46;;;;;;;27.00;15.35;;;13.50;99.90;;;;;;5121109;27;20053;-76
2023/09/22 05:47:34;;;;;;;32.72;17.20;;;13.50;99.90;;;;;;5152987;27;20100;-78
2023/09/22 05:50:23;;;;;;;30.38;16.70;;;13.60;99.90;;;;;;5153305;27;20065;-77
2023/09/22 05:53:09;;;;;;;35.08;18.45;;;13.60;99.90;;;;;;5134992;27;20049;-78
2023/09/22 05:56:03;;;;;;;32.50;17.23;;;13.60;99.90;;;;;;5152618;27;20116;-77
2023/09/22 05:58:49;;;;;;;39.75;20.95;;;13.60;99.90;;;;;;5152406;27;20531;-79
2023/09/22 06:01:37;;;;;;;32.30;19.15;;;13.60;99.90;;;;;;5152698;27;20042;-76
2023/09/22 06:04:24;;;;;;;45.90;20.95;;;13.60;99.90;;;;;;5152849;27;20050;-77
2023/09/22 06:07:14;;;;;;;46.42;21.27;;;13.60;99.90;;;;;;5134337;27;20053;-75
2023/09/22 06:10:05;;;;;;;39.20;20.17;;;13.60;99.90;;;;;;5152326;27;20149;-76
2023/09/22 06:12:51;;;;;;;44.42;21.65;;;13.70;99.90;;;;;;5151904;27;20478;-76
2023/09/22 06:15:37;;;;;;;46.58;21.60;;;13.70;99.90;;;;;;5153300;27;20054;-75
2023/09/22 06:18:24;;;;;;;40.45;19.55;;;13.70;99.90;;;;;;5134159;27;20058;-74
2023/09/22 06:21:10;;;;;;;44.78;20.30;;;13.70;99.90;;;;;;5121630;27;20054;-79
2023/09/22 06:23:57;;;;;;;35.70;18.98;;;13.80;99.90;;;;;;5152607;27;20138;-79
2023/09/22 06:26:43;;;;;;;34.30;18.00;;;13.70;99.90;;;;;;5133370;27;20050;-80
2023/09/22 06:29:29;;;;;;;34.40;17.27;;;13.70;99.90;;;;;;5151859;27;20161;-74
2023/09/22 06:32:17;;;;;;;32.78;16.85;;;13.60;99.90;;;;;;5152421;27;20097;-76
2023/09/22 06:35:06;;;;;;;33.95;17.02;;;13.60;99.90;;;;;;5136617;27;20486;-80
2023/09/22 06:37:53;;;;;;;32.50;17.88;;;13.60;99.90;;;;;;5137175;27;20039;-80
2023/09/22 06:40:41;;;;;;;32.28;16.92;;;13.50;99.90;;;;;;5152443;27;20559;-77
2023/09/22 06:43:29;;;;;;;34.85;17.05;;;13.50;99.90;;;;;;5151794;27;20050;-77
2023/09/22 06:46:17;;;;;;;34.58;16.65;;;13.50;99.90;;;;;;5133764;27;20050;-76
2023/09/22 06:49:07;;;;;;;32.20;17.58;;;13.50;99.90;;;;;;5151746;27;20050;-80
2023/09/22 06:51:54;;;;;;;35.33;19.13;;;13.60;99.90;;;;;;5137414;27;20047;-80
2023/09/22 06:54:40;;;;;;;30.73;17.08;;;13.70;99.90;;;;;;5152278;27;20489;-74
2023/09/22 06:57:26;;;;;;;35.53;18.00;;;13.70;99.90;;;;;;5151143;27;20046;-80
2023/09/22 07:00:18;;;;;;;36.03;18.65;;;13.80;99.90;;;;;;5151574;27;20070;-77
2023/09/22 07:03:05;;;;;;;38.65;18.80;;;14.00;99.90;;;;;;5132307;27;20047;-76
2023/09/22 07:05:51;;;;;;;32.20;18.45;;;14.10;99.90;;;;;;5118947;27;20046;-78
2023/09/22 07:08:37;;;;;;;32.83;18.10;;;14.20;99.90;;;;;;5152930;27;20107;-77
2023/09/22 07:11:24;;;;;;;36.28;18.50;;;14.20;99.90;;;;;;5153347;27;20091;-80
2023/09/22 07:14:10;;;;;;;32.72;18.80;;;14.10;99.90;;;;;;5134962;27;20195;-74
2023/09/22 07:16:56;;;;;;;34.65;20.23;;;14.20;99.90;;;;;;5133124;27;20058;-76
2023/09/22 07:19:43;;;;;;;41.33;20.38;;;14.20;99.90;;;;;;5151762;27;20050;-75
2023/09/22 07:22:31;;;;;;;33.88;19.50;;;14.10;99.90;;;;;;5132635;27;20079;-77
2023/09/22 07:25:17;;;;;;;39.45;20.63;;;14.10;99.90;;;;;;5133149;27;20553;-75
2023/09/22 07:28:03;;;;;;;34.72;19.52;;;14.10;99.90;;;;;;5150501;27;20062;-76
2023/09/22 07:30:49;;;;;;;37.13;20.33;;;14.00;99.90;;;;;;5151566;27;20393;-75
2023/09/22 07:33:35;;;;;;;35.88;18.85;;;14.00;99.90;;;;;;5151849;27;20097;-75
2023/09/22 07:36:21;;;;;;;31.00;18.75;;;14.00;99.90;;;;;;5132997;27;20577;-74
2023/09/22 07:39:09;;;;;;;38.00;18.13;;;14.00;99.90;;;;;;5133195;27;20062;-74
2023/09/22 07:41:56;;;;;;;30.83;18.02;;;14.00;99.90;;;;;;5132786;27;20058;-75
2023/09/22 07:44:42;;;;;;;35.28;18.48;;;13.90;99.90;;;;;;5142502;27;20055;-75
2023/09/22 07:47:28;;;;;;;37.42;18.92;;;14.00;99.90;;;;;;5151304;27;20047;-75
2023/09/22 07:50:15;;;;;;;34.65;18.60;;;14.00;99.90;;;;;;5151654;27;20042;-76
2023/09/22 07:53:02;;;;;;;35.30;17.80;;;14.00;99.90;;;;;;5132944;27;20072;-76
2023/09/22 07:55:52;;;;;;;31.42;17.23;;;14.00;99.90;;;;;;5132713;27;20451;-75
2023/09/22 07:58:41;;;;;;;29.55;16.90;;;14.00;99.90;;;;;;5131740;27;20050;-74
2023/09/22 08:01:27;;;;;;;28.63;16.88;;;14.10;99.90;;;;;;5132139;27;20046;-76
2023/09/22 08:04:13;;;;;;;31.33;16.38;;;14.10;99.90;;;;;;5134276;27;20047;-74
2023/09/22 08:06:59;;;;;;;28.83;15.95;;;14.20;99.90;;;;;;5117238;27;20046;-74
2023/09/22 08:09:45;;;;;;;33.30;16.88;;;14.10;99.90;;;;;;5128367;27;20230;-77
2023/09/22 08:12:31;;;;;;;30.35;15.60;;;14.20;99.90;;;;;;5131505;27;20088;-81
2023/09/22 08:15:18;;;;;;;27.67;14.88;;;14.30;99.90;;;;;;5151384;27;20369;-77
2023/09/22 08:18:08;;;;;;;22.77;14.75;;;14.30;99.90;;;;;;5150865;27;20055;-72
2023/09/22 08:20:54;;;;;;;23.33;13.57;;;14.40;99.90;;;;;;5151229;27;20046;-73
2023/09/22 08:23:40;;;;;;;21.45;12.85;;;14.40;99.90;;;;;;5133095;27;20046;-75
2023/09/22 08:26:26;;;;;;;22.80;12.48;;;14.60;99.90;;;;;;5135493;27;20061;-76
2023/09/22 08:29:12;;;;;;;20.73;12.40;;;14.80;99.90;;;;;;5132546;27;20050;-78
2023/09/22 08:31:58;;;;;;;17.13;11.15;;;14.80;99.90;;;;;;5154048;27;20050;-79
2023/09/22 08:34:46;;;;;;;18.88;12.07;;;14.90;99.90;;;;;;5153971;27;20039;-78
2023/09/22 08:37:33;;;;;;;18.67;12.20;;;15.10;99.90;;;;;;5154150;27;20039;-76
2023/09/22 08:40:19;;;;;;;21.85;11.40;;;15.20;99.90;;;;;;5140618;27;20054;-81
2023/09/22 08:43:05;;;;;;;16.33;11.30;;;15.30;99.90;;;;;;5154557;27;20517;-78
2023/09/22 08:45:52;;;;;;;18.98;11.52;;;15.30;99.90;;;;;;5139992;27;20122;-81
2023/09/22 08:48:38;;;;;;;15.75;10.57;;;15.30;99.90;;;;;;5135726;27;20063;-75
2023/09/22 08:51:25;;;;;;;17.63;10.57;;;15.30;99.90;;;;;;5155221;27;20089;-76
2023/09/22 08:54:11;;;;;;;16.50;10.38;;;15.40;99.90;;;;;;5139226;27;20047;-77
2023/09/22 08:56:57;;;;;;;14.93;8.85;;;15.70;99.90;;;;;;5154203;27;20047;-75
2023/09/22 08:59:44;;;;;;;14.18;8.10;;;15.70;99.90;;;;;;5153947;27;20493;-74
2023/09/22 09:02:30;;;;;;;13.85;7.93;;;15.70;99.90;;;;;;5155023;27;20442;-75
2023/09/22 09:05:28;;;;;;;12.48;9.00;;;16.00;99.90;;;;;;5157423;27;20053;-74
2023/09/22 09:08:16;;;;;;;11.55;7.72;;;16.10;99.90;;;;;;5158007;27;20053;-79
2023/09/22 09:11:09;;;;;;;15.23;7.60;;;16.10;99.90;;;;;;5156626;27;20078;-75
2023/09/22 09:13:55;;;;;;;16.73;7.30;;;16.00;99.90;;;;;;5155135;27;20045;-75
2023/09/22 09:16:41;;;;;;;10.75;7.00;;;16.10;99.90;;;;;;5154279;27;20057;-76
2023/09/22 09:19:28;;;;;;;11.95;6.15;;;15.90;99.90;;;;;;5153869;27;20150;-77
2023/09/22 09:22:14;;;;;;;12.73;7.00;;;15.90;99.90;;;;;;5152962;27;20046;-79
2023/09/22 09:25:01;;;;;;;9.30;6.82;;;16.00;99.90;;;;;;5153738;27;20099;-77
2023/09/22 09:27:59;;;;;;;11.43;6.72;;;16.10;99.90;;;;;;5153673;27;20046;-81
2023/09/22 09:30:52;;;;;;;9.73;5.88;;;16.10;99.90;;;;;;5153661;27;20057;-81
2023/09/22 09:33:51;;;;;;;9.82;5.95;;;16.00;99.90;;;;;;5153330;27;20142;-75
2023/09/22 09:36:37;;;;;;;7.93;6.00;;;16.00;99.90;;;;;;5135681;27;20076;-81
2023/09/22 09:39:57;;;;;;;8.85;4.97;;;15.90;99.90;;;;;;5153064;27;20078;-79
2023/09/22 09:42:45;;;;;;;9.00;4.65;;;15.90;99.90;;;;;;5120592;27;20138;-74
2023/09/22 09:45:34;;;;;;;6.43;4.65;;;15.90;99.90;;;;;;5153668;27;20043;-75
2023/09/22 09:48:21;;;;;;;10.20;4.68;;;15.90;99.90;;;;;;5153289;27;20050;-74
2023/09/22 09:51:12;;;;;;;9.27;5.05;;;16.20;99.90;;;;;;5134927;27;20471;-75
2023/09/22 09:54:07;;;;;;;9.82;3.92;;;16.40;99.90;;;;;;5152149;27;20051;-76
2023/09/22 09:56:53;;;;;;;;;;;16.80;99.90;;;;;;5152878;27;20042;-77
2023/09/22 09:59:40;;;;;;;6.03;4.13;;;17.00;99.90;;;;;;5153427;27;20323;-82
2023/09/22 10:02:27;;;;;;;9.60;3.55;;;17.30;99.90;;;;;;5134719;27;20614;-75
2023/09/22 10:05:18;;;;;;;6.32;3.33;;;17.40;99.90;;;;;;5152130;27;20107;-75
2023/09/22 10:08:06;;;;;;;5.40;3.30;;;17.40;99.90;;;;;;5153245;27;20057;-80
2023/09/22 10:10:54;;;;;;;10.25;3.58;;;17.50;99.90;;;;;;5151333;27;20502;-80
2023/09/22 10:13:40;;;;;;;7.20;3.90;;;17.70;99.90;;;;;;5152350;27;20090;-80
2023/09/22 10:16:30;;;;;;;6.75;3.90;;;17.90;99.90;;;;;;5153901;27;20554;-75
2023/09/22 10:19:42;;;;;;;6.60;3.22;;;17.80;99.90;;;;;;5138377;27;20050;-76
2023/09/22 10:22:29;;;;;;;8.93;2.58;;;17.90;99.90;;;;;;5153326;27;20057;-78
2023/09/22 10:25:18;;;;;;;4.85;2.67;;;18.00;99.90;;;;;;5151902;27;20053;-75
2023/09/22 10:28:06;;;;;;;6.18;2.78;;;18.00;99.90;;;;;;5152165;27;20050;-81
2023/09/22 10:31:02;;;;;;;6.20;2.03;;;18.20;99.90;;;;;;5134516;27;20055;-79
2023/09/22 10:33:48;;;;;;;7.00;1.73;;;18.30;99.90;;;;;;5134324;27;20142;-78
2023/09/22 10:36:47;;;;;;;5.10;2.17;;;18.30;99.90;;;;;;5153231;27;20451;-78
2023/09/22 10:39:52;;;;;;;3.50;1.15;;;18.30;99.90;;;;;;5151719;27;20043;-75
2023/09/22 10:42:40;;;;;;;;;;;18.30;99.90;;;;;;5152339;27;20095;-82
2023/09/22 10:45:28;;;;;;;11.60;1.27;;;18.40;99.90;;;;;;5152243;27;20378;-83
2023/09/22 10:48:14;;;;;;;2.80;1.10;;;18.40;99.90;;;;;;5151473;27;20065;-77
2023/09/22 10:51:06;;;;;;;3.35;1.33;;;18.40;99.90;;;;;;5152262;27;20054;-75
2023/09/22 10:54:00;;;;;;;4.93;1.58;;;18.50;99.90;;;;;;5132142;27;20099;-78
2023/09/22 10:56:47;;;;;;;3.55;1.25;;;19.00;99.90;;;;;;5133484;27;20046;-78
2023/09/22 10:59:35;;;;;;;4.85;1.30;;;19.50;99.90;;;;;;5134524;27;20134;-83
2023/09/22 11:02:26;;;;;;;5.53;1.40;;;19.90;99.90;;;;;;5133871;27;20053;-77
2023/09/22 11:05:13;;;;;;;4.05;1.80;;;19.60;99.90;;;;;;5151852;27;20050;-80
2023/09/22 11:08:00;;;;;;;5.15;1.77;;;20.00;99.90;;;;;;5132745;27;20050;-73
2023/09/22 11:10:51;;;;;;;3.83;1.30;;;20.40;99.90;;;;;;5151844;27;20436;-77
2023/09/22 11:13:37;;;;;;;3.60;1.20;;;20.00;99.90;;;;;;5151160;27;20050;-78
2023/09/22 11:16:29;;;;;;;2.50;1.20;;;19.70;99.90;;;;;;5152344;27;20102;-79
2023/09/22 11:19:15;;;;;;;2.60;1.23;;;19.30;99.90;;;;;;5152998;27;20398;-76
2023/09/22 11:22:01;;;;;;;3.65;1.20;;;19.00;99.90;;;;;;5152341;27;20489;-82
2023/09/22 11:24:47;;;;;;;4.82;1.58;;;18.90;99.90;;;;;;5151470;27;20053;-81
2023/09/22 11:27:45;;;;;;;2.83;1.30;;;18.90;99.90;;;;;;5152218;27;20086;-77
2023/09/22 11:30:33;;;;;;;5.40;1.52;;;19.40;99.90;;;;;;5133178;27;20557;-78
2023/09/22 11:33:19;;;;;;;5.13;1.48;;;19.60;99.90;;;;;;5151412;27;20134;-75
2023/09/22 11:36:07;;;;;;;3.78;1.20;;;19.70;99.90;;;;;;5151536;27;20066;-78
2023/09/22 11:38:54;;;;;;;3.05;1.45;;;20.10;99.90;;;;;;5133089;27;20049;-77
2023/09/22 11:41:40;;;;;;;4.88;1.35;;;21.00;99.90;;;;;;5132625;27;20054;-76
2023/09/22 11:44:26;;;;;;;2.88;1.33;;;21.50;99.90;;;;;;5105085;27;20099;-78
2023/09/22 11:47:21;;;;;;;3.42;1.48;;;20.80;99.90;;;;;;5151025;27;20494;-79
2023/09/22 11:50:08;;;;;;;4.07;1.58;;;20.20;99.90;;;;;;5152186;27;20051;-81
2023/09/22 11:53:09;;;;;;;3.63;1.52;;;19.70;99.90;;;;;;5151360;27;20051;-79
2023/09/22 11:55:55;;;;;;;3.88;1.13;;;19.40;99.90;;;;;;5150582;27;20050;-79
2023/09/22 11:58:42;;;;;;;3.03;1.17;;;19.30;99.90;;;;;;5150715;27;20090;-76
2023/09/22 12:01:28;;;;;;;4.55;1.55;;;19.70;99.90;;;;;;5150476;27;20039;-77
2023/09/22 12:04:14;;;;;;;2.92;1.10;;;20.40;99.90;;;;;;5152948;27;20049;-78
2023/09/22 12:07:01;;;;;;;2.83;1.45;;;21.20;99.90;;;;;;5137236;27;20051;-75
2023/09/22 12:09:47;;;;;;;4.75;1.30;;;21.10;99.90;;;;;;5140645;27;20142;-76
2023/09/22 12:12:33;;;;;;;5.60;1.10;;;20.60;99.90;;;;;;5155077;27;20046;-76
2023/09/22 12:15:19;;;;;;;4.25;1.52;;;20.60;99.90;;;;;;5156100;27;20042;-75
2023/09/22 12:18:06;;;;;;;3.78;1.25;;;21.00;99.90;;;;;;5123153;27;20142;-77
2023/09/22 12:20:52;;;;;;;4.10;0.95;;;20.70;99.90;;;;;;5155194;27;20129;-75
2023/09/22 12:23:38;;;;;;;3.90;0.90;;;20.40;99.90;;;;;;5154263;27;20130;-76
2023/09/22 12:26:24;;;;;;;2.97;1.10;;;20.00;99.90;;;;;;5154377;27;20486;-77
2023/09/22 12:29:13;;;;;;;3.78;0.80;;;19.60;99.90;;;;;;5154581;27;20047;-80
2023/09/22 12:32:00;;;;;;;2.83;1.20;;;19.50;99.90;;;;;;5154336;27;20111;-82
2023/09/22 12:34:46;;;;;;;2.05;0.90;;;19.10;99.90;;;;;;5136642;27;20490;-75
2023/09/22 12:37:33;;;;;;;3.28;1.00;;;19.20;99.90;;;;;;5140395;27;20070;-80
2023/09/22 12:40:19;;;;;;;2.50;0.80;;;20.60;99.90;;;;;;5154570;27;20047;-81
2023/09/22 12:43:06;;;;;;;3.05;1.00;;;21.60;99.90;;;;;;5154884;27;20458;-81
2023/09/22 12:45:52;;;;;;;3.10;0.80;;;21.40;99.60;;;;;;5154200;27;20057;-76
2023/09/22 12:48:39;;;;;;;5.10;0.90;;;21.80;99.60;;;;;;5154441;27;20505;-78
2023/09/22 12:51:26;;;;;;;1.60;0.57;;;22.30;98.20;;;;;;5155605;27;20506;-77
2023/09/22 12:54:12;;;;;;;1.55;0.57;;;21.80;97.70;;;;;;5155302;27;20060;-80
2023/09/22 12:56:59;;;;;;;1.50;0.50;;;21.60;98.00;;;;;;5141308;27;20111;-77
2023/09/22 12:59:45;;;;;;;4.18;0.52;;;21.20;99.00;;;;;;5121335;27;20042;-76
2023/09/22 13:02:33;;;;;;;4.05;0.50;;;21.90;99.00;;;;;;5122338;27;20130;-75
2023/09/22 13:05:19;;;;;;;1.98;0.70;;;22.50;97.60;;;;;;5135240;27;20078;-76
2023/09/22 13:08:05;;;;;;;1.23;0.40;;;23.00;96.20;;;;;;5135070;27;20133;-78
2023/09/22 13:10:51;;;;;;;2.05;0.57;;;23.00;95.80;;;;;;5136928;27;20046;-76
2023/09/22 13:13:37;;;;;;;2.97;0.90;;;23.50;96.60;;;;;;5136594;27;20207;-75
2023/09/22 13:16:23;;;;;;;2.53;0.70;;;23.50;96.00;;;;;;5153231;27;20059;-74
2023/09/22 13:19:09;;;;;;;2.97;0.93;;;23.20;96.10;;;;;;5153423;27;20394;-75
2023/09/22 13:21:57;;;;;;;2.53;0.70;;;22.30;96.50;;;;;;5152918;27;20039;-75
2023/09/22 13:24:46;;;;;;;1.95;0.55;;;21.80;98.10;;;;;;5136063;27;20058;-74
2023/09/22 13:27:32;;;;;;;1.33;0.60;;;21.10;99.60;;;;;;5153265;27;20123;-76
2023/09/22 13:30:18;;;;;;;1.58;0.50;;;20.30;99.90;;;;;;5153495;27;20046;-74
2023/09/22 13:33:04;;;;;;;2.63;0.82;;;19.90;99.90;;;;;;5136066;27;20103;-76
2023/09/22 13:35:51;;;;;;;3.22;0.90;;;19.80;99.90;;;;;;5153177;27;20103;-74
2023/09/22 13:38:37;;;;;;;3.75;1.10;;;19.90;99.90;;;;;;5135191;27;20054;-74
2023/09/22 13:41:24;;;;;;;4.55;0.90;;;20.00;99.90;;;;;;5134048;27;20057;-74
2023/09/22 13:44:10;;;;;;;1.33;0.50;;;20.00;99.90;;;;;;5121413;27;20087;-76
2023/09/22 13:46:56;;;;;;;1.13;0.20;;;19.80;99.90;;;;;;5154784;27;20808;-79
2023/09/22 13:49:42;;;;;;;2.58;0.50;;;19.60;99.90;;;;;;5153195;27;20128;-74
2023/09/22 13:52:28;;;;;;;2.83;0.40;;;19.70;99.90;;;;;;5153201;27;20072;-77
2023/09/22 13:55:15;;;;;;;2.20;0.45;;;20.10;99.90;;;;;;5136176;27;20505;-74
2023/09/22 13:58:01;;;;;;;3.00;0.30;;;20.00;99.90;;;;;;5139030;27;20095;-75
2023/09/22 14:00:47;;;;;;;1.00;0.40;;;20.30;99.90;;;;;;5153287;27;20102;-74
2023/09/22 14:03:34;;;;;;;1.42;0.40;;;20.50;99.90;;;;;;5134222;27;20086;-74
2023/09/22 14:06:23;;;;;;;2.35;0.40;;;20.50;99.90;;;;;;5135597;27;20548;-75
2023/09/22 14:09:09;;;;;;;2.80;0.60;;;20.50;99.90;;;;;;5135282;27;20449;-74
2023/09/22 14:11:55;;;;;;;2.53;0.65;;;20.10;99.90;;;;;;5153410;27;20043;-74
2023/09/22 14:14:42;;;;;;;2.08;0.60;;;19.80;99.90;;;;;;5120509;27;20198;-80
2023/09/22 14:17:28;;;;;;;5.07;0.40;;;19.60;99.90;;;;;;5153851;27;20050;-75